Time;durP1;ratioP1;P1;durP2;ratioP2;P2;SDS_P1;SDS_P2;PMS_P1;PMS_P2;Temp;Humidity;BMP_temperature;BMP_pressure;BME280_temperature;BME280_humidity;BME280_pressure;Samples;Min_cycle;Max_cycle;Signal;HPM_P1;HPM_P2
2022/05/09 00:00:32;;;;;;;5.30;4.80;;;17.70;67.70;;;-142.21;100.00;112049.66;5054695;28;20452;-79
2022/05/09 00:03:00;;;;;;;5.07;4.57;;;17.70;67.90;;;-142.21;100.00;112049.66;5055781;28;20519;-79
2022/05/09 00:05:30;;;;;;;4.60;4.20;;;17.70;67.60;;;-142.21;100.00;112049.66;5054795;28;20466;-79
2022/05/09 00:07:57;;;;;;;5.87;4.30;;;17.70;67.60;;;-142.21;100.00;112049.66;5055623;28;20444;-79
2022/05/09 00:10:28;;;;;;;4.63;4.23;;;17.70;67.30;;;-142.21;100.00;112049.66;5054758;28;20451;-79
2022/05/09 00:12:56;;;;;;;4.50;4.10;;;17.60;67.20;;;-142.21;100.00;112049.66;5040275;28;20477;-79
2022/05/09 00:15:23;;;;;;;7.07;4.37;;;17.60;68.00;;;-142.21;100.00;112049.66;5053912;28;20885;-79
2022/05/09 00:17:50;;;;;;;4.90;4.33;;;17.60;67.50;;;-142.21;100.00;112049.66;5055022;28;20547;-79
2022/05/09 00:20:19;;;;;;;5.63;4.27;;;17.50;67.50;;;-142.21;100.00;112049.66;5054041;28;20506;-78
2022/05/09 00:22:52;;;;;;;4.57;4.17;;;17.50;68.80;;;-142.21;100.00;112049.66;5054754;28;20444;-79
2022/05/09 00:25:22;;;;;;;4.67;4.27;;;17.50;68.40;;;-142.21;100.00;112049.66;5045203;28;20756;-79
2022/05/09 00:27:49;;;;;;;6.97;4.60;;;17.50;68.00;;;-142.21;100.00;112049.66;5042245;28;20945;-79
2022/05/09 00:30:17;;;;;;;6.20;4.70;;;17.40;68.00;;;-142.21;100.00;112049.66;5055007;28;20476;-79
2022/05/09 00:32:45;;;;;;;4.97;4.57;;;17.40;67.70;;;-142.21;100.00;112049.66;5054798;28;20559;-79
2022/05/09 00:35:14;;;;;;;5.30;4.43;;;17.40;68.00;;;-142.21;100.00;112049.66;5054868;28;20448;-78
2022/05/09 00:37:41;;;;;;;5.00;4.50;;;17.40;69.30;;;-142.21;100.00;112049.66;5054965;28;20448;-79
2022/05/09 00:40:14;;;;;;;4.57;4.13;;;17.40;68.20;;;-142.21;100.00;112049.66;5054698;28;20450;-79
2022/05/09 00:42:46;;;;;;;4.33;3.93;;;17.40;68.00;;;-142.21;100.00;112049.66;5053639;28;20855;-80
2022/05/09 00:45:14;;;;;;;4.43;4.03;;;17.30;68.00;;;-142.21;100.00;112049.66;5054721;28;20515;-79
2022/05/09 00:47:41;;;;;;;5.27;3.93;;;17.30;67.70;;;-142.21;100.00;112049.66;5054192;28;20440;-79
2022/05/09 00:50:12;;;;;;;5.10;4.60;;;17.20;67.90;;;-142.21;100.00;112049.66;5054408;28;20452;-79
2022/05/09 00:52:47;;;;;;;4.67;4.27;;;17.20;68.20;;;-142.21;100.00;112049.66;5049850;28;20485;-79
2022/05/09 00:55:23;;;;;;;5.80;5.30;;;17.20;68.50;;;-142.21;100.00;112049.66;5034582;28;20493;-79
2022/05/09 00:58:00;;;;;;;5.10;4.60;;;17.10;69.30;;;-142.21;100.00;112049.66;5043693;28;20533;-79
2022/05/09 01:00:27;;;;;;;5.23;4.77;;;17.00;69.50;;;-142.21;100.00;112049.66;5054423;28;20444;-79
2022/05/09 01:03:01;;;;;;;5.60;5.10;;;17.10;69.20;;;-142.21;100.00;112049.66;5047558;28;20854;-79
2022/05/09 01:05:30;;;;;;;5.30;4.80;;;17.10;68.60;;;-142.21;100.00;112049.66;5053721;28;20526;-79
2022/05/09 01:07:59;;;;;;;5.00;4.50;;;17.10;68.80;;;-142.21;100.00;112049.66;5054279;28;20867;-79
2022/05/09 01:10:32;;;;;;;4.60;4.20;;;17.10;68.80;;;-142.21;100.00;112049.66;5053397;28;20452;-80
2022/05/09 01:13:03;;;;;;;4.90;4.50;;;17.10;68.20;;;-142.21;100.00;112049.66;5053596;28;20522;-79
2022/05/09 01:15:31;;;;;;;4.80;4.40;;;17.00;68.10;;;-142.21;100.00;112049.66;5053748;28;20524;-79
2022/05/09 01:18:06;;;;;;;4.90;4.50;;;16.90;68.50;;;-142.21;100.00;112049.66;5048298;28;20498;-79
2022/05/09 01:20:34;;;;;;;5.00;4.50;;;16.90;68.30;;;-142.21;100.00;112049.66;5053920;28;20506;-79
2022/05/09 01:23:03;;;;;;;5.53;4.27;;;16.90;68.30;;;-142.21;100.00;112049.66;5054049;28;20539;-78
2022/05/09 01:25:32;;;;;;;6.17;4.50;;;16.90;68.10;;;-142.21;100.00;112049.66;5053329;28;20493;-79
2022/05/09 01:28:00;;;;;;;5.10;4.60;;;16.80;68.30;;;-142.21;100.00;112049.66;5053446;28;20502;-79
2022/05/09 01:30:39;;;;;;;5.90;5.00;;;16.80;69.20;;;-142.21;100.00;112049.66;5053342;28;20452;-79
2022/05/09 01:33:20;;;;;;;4.77;4.37;;;16.80;69.40;;;-142.21;100.00;112049.66;5053511;28;20563;-78
2022/05/09 01:35:54;;;;;;;4.70;4.30;;;16.90;68.90;;;-142.21;100.00;112049.66;5049877;28;20533;-78
2022/05/09 01:38:31;;;;;;;4.83;4.43;;;16.70;68.50;;;-142.21;100.00;112049.66;5048244;28;20463;-79
2022/05/09 01:40:58;;;;;;;5.27;4.77;;;16.70;69.20;;;-142.21;100.00;112049.66;5034144;28;20429;-80
2022/05/09 01:43:38;;;;;;;5.03;4.63;;;16.70;68.80;;;-142.21;100.00;112049.66;5043883;28;20547;-80
2022/05/09 01:46:10;;;;;;;5.77;5.17;;;16.60;69.10;;;-142.21;100.00;112049.66;5046184;28;20514;-80
2022/05/09 01:51:31;;;;;;;6.03;4.97;;;16.50;68.80;;;-142.21;100.00;112049.66;5005629;28;20449;-79
2022/05/09 01:54:00;;;;;;;5.53;5.03;;;16.50;69.90;;;-142.21;100.00;112049.66;5052935;28;20444;-79
2022/05/09 01:56:31;;;;;;;5.40;4.90;;;16.50;70.20;;;-142.21;100.00;112049.66;5051860;28;20476;-79
2022/05/09 01:58:59;;;;;;;7.53;5.43;;;16.50;69.30;;;-142.21;100.00;112049.66;5047530;28;20459;-79
2022/05/09 02:01:31;;;;;;;8.83;4.97;;;16.50;70.20;;;-142.21;100.00;112049.66;5051849;28;20944;-79
2022/05/09 02:03:58;;;;;;;7.63;5.63;;;16.50;71.10;;;-142.21;100.00;112049.66;5053028;28;20471;-79
2022/05/09 02:06:28;;;;;;;6.27;5.27;;;16.50;70.30;;;-142.21;100.00;112049.66;5052344;28;20448;-79
2022/05/09 02:08:55;;;;;;;5.47;4.97;;;16.50;70.20;;;-142.21;100.00;112049.66;5033124;28;20445;-79
2022/05/09 02:11:23;;;;;;;6.03;5.30;;;16.50;69.40;;;-142.21;100.00;112049.66;5032727;28;20481;-79
2022/05/09 02:13:51;;;;;;;5.87;5.30;;;16.50;69.40;;;-142.21;100.00;112049.66;5052076;28;20562;-79
2022/05/09 02:16:18;;;;;;;6.27;5.00;;;16.50;69.40;;;-142.21;100.00;112049.66;5053267;28;20792;-79
2022/05/09 02:18:45;;;;;;;6.40;5.73;;;16.50;69.90;;;-142.21;100.00;112049.66;5052973;28;20481;-79
2022/05/09 02:21:12;;;;;;;6.03;5.43;;;16.50;69.40;;;-142.21;100.00;112049.66;5053533;28;20502;-79
2022/05/09 02:23:40;;;;;;;7.33;5.63;;;16.40;69.90;;;-142.21;100.00;112049.66;5051272;28;20921;-78
2022/05/09 02:26:07;;;;;;;6.13;5.53;;;16.40;70.80;;;-142.21;100.00;112049.66;5034307;28;20485;-78
2022/05/09 02:28:36;;;;;;;6.60;5.83;;;16.40;70.90;;;-142.21;100.00;112049.66;5052483;28;20464;-78
2022/05/09 02:31:04;;;;;;;6.23;5.73;;;16.40;71.10;;;-142.21;100.00;112049.66;5032518;28;20939;-78
2022/05/09 02:33:31;;;;;;;6.53;5.93;;;16.50;70.30;;;-142.21;100.00;112049.66;5046314;28;20574;-79
2022/05/09 02:35:59;;;;;;;7.20;5.90;;;16.50;70.00;;;-142.21;100.00;112049.66;5052629;28;20472;-79
2022/05/09 02:38:28;;;;;;;6.20;5.60;;;16.40;69.80;;;-142.21;100.00;112049.66;5052199;28;20471;-79
2022/05/09 02:40:56;;;;;;;6.73;5.77;;;16.40;70.30;;;-142.21;100.00;112049.66;5053285;28;20522;-79
2022/05/09 02:43:24;;;;;;;6.57;5.60;;;16.40;70.40;;;-142.21;100.00;112049.66;5052089;28;20494;-79
2022/05/09 02:45:52;;;;;;;6.83;6.13;;;16.40;70.20;;;-142.21;100.00;112049.66;5052101;28;20483;-79
2022/05/09 02:48:20;;;;;;;5.90;5.40;;;16.40;70.60;;;-142.21;100.00;112049.66;5052710;28;21030;-79
2022/05/09 02:50:47;;;;;;;6.20;5.60;;;16.40;70.40;;;-142.21;100.00;112049.66;5051553;28;20459;-79
2022/05/09 02:53:14;;;;;;;6.50;5.80;;;16.40;70.20;;;-142.21;100.00;112049.66;5052263;28;20570;-79
2022/05/09 02:55:41;;;;;;;5.93;5.40;;;16.40;70.10;;;-142.21;100.00;112049.66;5041947;28;20522;-79
2022/05/09 02:58:08;;;;;;;6.17;5.47;;;16.30;70.10;;;-142.21;100.00;112049.66;5052240;28;20454;-79
2022/05/09 03:00:35;;;;;;;5.80;4.80;;;16.30;70.10;;;-142.21;100.00;112049.66;5051598;28;20539;-79
2022/05/09 03:05:49;;;;;;;6.03;5.43;;;16.10;69.90;;;-142.21;100.00;112049.66;5032210;28;20441;-79
2022/05/09 03:08:18;;;;;;;5.77;5.27;;;16.20;70.10;;;-142.21;100.00;112049.66;5047077;28;20960;-79
2022/05/09 03:10:46;;;;;;;7.53;6.23;;;16.00;69.90;;;-142.21;100.00;112049.66;5052317;28;20487;-79
2022/05/09 03:13:15;;;;;;;6.10;5.50;;;16.00;70.50;;;-142.21;100.00;112049.66;5039813;28;20587;-79
2022/05/09 03:15:46;;;;;;;5.93;5.33;;;16.10;71.10;;;-142.21;100.00;112049.66;5051640;28;20448;-79
2022/05/09 03:18:18;;;;;;;6.10;5.50;;;16.00;70.80;;;-142.21;100.00;112049.66;5033727;28;20445;-79
2022/05/09 03:20:46;;;;;;;6.77;5.43;;;16.00;70.80;;;-142.21;100.00;112049.66;5032437;28;20527;-79
2022/05/09 03:23:14;;;;;;;6.40;5.80;;;16.00;70.60;;;-142.21;100.00;112049.66;5035190;28;21234;-78
2022/05/09 03:25:42;;;;;;;6.23;5.63;;;16.00;71.00;;;-142.21;100.00;112049.66;5041013;28;20453;-78
2022/05/09 03:28:13;;;;;;;6.33;5.73;;;15.90;70.50;;;-142.21;100.00;112049.66;5039511;28;20540;-79
2022/05/09 03:30:41;;;;;;;5.97;5.37;;;15.90;70.20;;;-142.21;100.00;112049.66;5046015;28;20548;-77
2022/05/09 03:33:09;;;;;;;5.83;5.23;;;15.90;70.10;;;-142.21;100.00;112049.66;5046311;28;20961;-79
2022/05/09 03:35:38;;;;;;;7.20;5.27;;;15.90;70.30;;;-142.21;100.00;112049.66;5049177;28;20447;-78
2022/05/09 03:38:05;;;;;;;6.20;5.60;;;15.90;69.80;;;-142.21;100.00;112049.66;5042016;28;20536;-78
2022/05/09 03:40:34;;;;;;;5.77;5.27;;;15.90;70.20;;;-142.21;100.00;112049.66;5031719;28;20499;-78
2022/05/09 03:43:01;;;;;;;5.40;4.90;;;15.80;70.30;;;-142.21;100.00;112049.66;5031709;28;20773;-79
2022/05/09 03:45:29;;;;;;;6.57;5.43;;;15.80;70.60;;;-142.21;100.00;112049.66;5031324;28;20568;-78
2022/05/09 03:48:03;;;;;;;5.40;4.90;;;15.70;70.10;;;-142.21;100.00;112049.66;5046087;28;20456;-79
2022/05/09 03:50:30;;;;;;;5.60;5.10;;;15.60;69.70;;;-142.21;100.00;112049.66;5051579;28;20433;-79
2022/05/09 03:52:59;;;;;;;5.37;4.87;;;15.70;69.90;;;-142.21;100.00;112049.66;5051466;28;20496;-79
2022/05/09 03:55:27;;;;;;;5.20;4.70;;;15.70;69.50;;;-142.21;100.00;112049.66;5051415;28;20535;-77
2022/05/09 03:57:58;;;;;;;5.70;5.20;;;15.70;69.90;;;-142.21;100.00;112049.66;5051425;28;20820;-79
2022/05/09 04:00:32;;;;;;;6.43;5.60;;;15.70;69.70;;;-142.21;100.00;112049.66;5051944;28;20487;-79
2022/05/09 04:03:06;;;;;;;5.50;5.00;;;15.70;69.50;;;-142.21;100.00;112049.66;5031960;28;20440;-79
2022/05/09 04:05:35;;;;;;;7.73;5.70;;;15.60;69.70;;;-142.21;100.00;112049.66;5045768;28;20789;-80
2022/05/09 04:08:08;;;;;;;6.33;5.20;;;15.70;69.90;;;-142.21;100.00;112049.66;5051487;28;20503;-79
2022/05/09 04:10:37;;;;;;;11.53;4.90;;;15.60;70.10;;;-142.21;100.00;112049.66;5050780;28;20475;-79
2022/05/09 04:13:05;;;;;;;5.13;4.53;;;15.70;70.10;;;-142.21;100.00;112049.66;5051112;28;21185;-79
2022/05/09 04:18:21;;;;;;;7.30;5.47;;;15.60;70.10;;;-142.21;100.00;112049.66;5035287;28;20428;-78
2022/05/09 04:20:54;;;;;;;6.23;4.27;;;15.60;71.20;;;-142.21;100.00;112049.66;5036482;28;20472;-77
2022/05/09 04:23:23;;;;;;;7.47;5.37;;;15.60;70.50;;;-142.21;100.00;112049.66;5055090;28;20920;-79
2022/05/09 04:25:51;;;;;;;5.10;4.60;;;15.60;70.80;;;-142.21;100.00;112049.66;5054430;28;20797;-78
2022/05/09 04:28:22;;;;;;;7.30;5.80;;;15.60;71.40;;;-142.21;100.00;112049.66;5035423;28;20463;-79
2022/05/09 04:30:51;;;;;;;8.43;5.87;;;15.60;70.80;;;-142.21;100.00;112049.66;5034821;28;20450;-79
2022/05/09 04:33:18;;;;;;;7.30;5.97;;;15.60;70.70;;;-142.21;100.00;112049.66;5034882;28;20504;-79
2022/05/09 04:35:46;;;;;;;6.07;5.47;;;15.60;71.10;;;-142.21;100.00;112049.66;5034587;28;20488;-79
2022/05/09 04:38:21;;;;;;;6.57;5.53;;;15.60;71.30;;;-142.21;100.00;112049.66;5035032;28;20503;-79
2022/05/09 04:40:51;;;;;;;6.77;6.03;;;15.60;71.50;;;-142.21;100.00;112049.66;5034535;28;20463;-79
2022/05/09 04:43:20;;;;;;;7.40;6.70;;;15.60;71.50;;;-142.21;100.00;112049.66;5034996;28;20499;-78
2022/05/09 04:45:48;;;;;;;5.90;5.30;;;15.70;72.70;;;-142.21;100.00;112049.66;5034048;28;20485;-78
2022/05/09 04:48:16;;;;;;;6.90;6.20;;;15.70;72.50;;;-142.21;100.00;112049.66;5034725;28;20548;-78
2022/05/09 04:50:44;;;;;;;6.80;6.17;;;15.70;71.90;;;-142.21;100.00;112049.66;5034152;28;20449;-79
2022/05/09 04:53:12;;;;;;;6.87;6.27;;;15.70;71.80;;;-142.21;100.00;112049.66;5034531;28;20551;-78
2022/05/09 04:55:40;;;;;;;6.93;6.23;;;15.90;71.80;;;-142.21;100.00;112049.66;5033759;28;20469;-80
2022/05/09 04:58:13;;;;;;;6.90;6.30;;;15.90;71.70;;;-142.21;100.00;112049.66;5034834;28;20453;-79
2022/05/09 05:00:41;;;;;;;8.70;6.90;;;16.10;71.80;;;-142.21;100.00;112049.66;5043767;28;20494;-79
2022/05/09 05:03:08;;;;;;;6.93;6.23;;;16.10;71.40;;;-142.21;100.00;112049.66;5055811;28;20484;-79
2022/05/09 05:05:36;;;;;;;8.33;6.93;;;16.10;71.40;;;-142.21;100.00;112049.66;5054378;28;20444;-78
2022/05/09 05:08:04;;;;;;;8.20;6.60;;;16.20;71.70;;;-142.21;100.00;112049.66;5054063;28;21046;-79
2022/05/09 05:10:32;;;;;;;8.13;7.33;;;16.20;72.40;;;-142.21;100.00;112049.66;5053673;28;20480;-79
2022/05/09 05:13:03;;;;;;;7.60;6.90;;;16.30;72.20;;;-142.21;100.00;112049.66;5053968;28;20506;-79
2022/05/09 05:15:32;;;;;;;7.70;7.00;;;16.40;72.40;;;-142.21;100.00;112049.66;5054329;28;20447;-79
2022/05/09 05:18:00;;;;;;;7.37;6.67;;;16.40;72.40;;;-142.21;100.00;112049.66;5034737;28;20460;-79
2022/05/09 05:20:29;;;;;;;7.80;6.97;;;16.50;72.40;;;-142.21;100.00;112049.66;5054280;28;20867;-79
2022/05/09 05:22:57;;;;;;;8.93;7.33;;;16.50;72.60;;;-142.21;100.00;112049.66;5057652;28;20446;-79
2022/05/09 05:25:28;;;;;;;8.17;7.30;;;16.60;72.50;;;-142.21;100.00;112049.66;5053818;28;20541;-79
2022/05/09 05:27:56;;;;;;;9.40;6.57;;;16.80;72.20;;;-142.21;100.00;112049.66;5053077;28;20483;-79
2022/05/09 05:30:24;;;;;;;8.60;7.23;;;16.90;72.20;;;-142.21;100.00;112049.66;5053940;28;20474;-79
2022/05/09 05:32:55;;;;;;;7.53;6.83;;;16.90;72.30;;;-142.21;100.00;112049.66;5053670;28;20915;-79
2022/05/09 05:35:25;;;;;;;7.93;7.23;;;17.00;72.60;;;-142.21;100.00;112049.66;5053690;28;20447;-79
2022/05/09 05:37:53;;;;;;;8.60;7.70;;;17.10;73.10;;;-142.21;100.00;112049.66;5053255;28;20543;-79
2022/05/09 05:40:21;;;;;;;12.80;7.10;;;17.20;73.00;;;-142.21;100.00;112049.66;5033389;28;20499;-78
2022/05/09 05:42:50;;;;;;;8.70;7.80;;;17.20;72.70;;;-142.21;100.00;112049.66;5032073;28;20527;-78
2022/05/09 05:45:20;;;;;;;9.07;7.77;;;17.30;72.50;;;-142.21;100.00;112049.66;5047977;28;20550;-79
2022/05/09 05:47:48;;;;;;;8.50;7.60;;;17.30;73.20;;;-142.21;100.00;112049.66;5052752;28;20522;-79
2022/05/09 05:50:20;;;;;;;9.53;7.70;;;17.40;73.50;;;-142.21;100.00;112049.66;5053491;28;20440;-79
2022/05/09 05:52:48;;;;;;;8.03;7.33;;;17.30;73.70;;;-142.21;100.00;112049.66;5052563;28;20499;-79
2022/05/09 05:55:19;;;;;;;8.63;7.73;;;17.40;73.30;;;-142.21;100.00;112049.66;5053150;28;20523;-78
2022/05/09 05:57:46;;;;;;;9.13;8.30;;;17.60;74.20;;;-142.21;100.00;112049.66;5059065;28;20440;-78
2022/05/09 06:00:20;;;;;;;9.03;7.70;;;17.70;73.40;;;-142.21;100.00;112049.66;5056117;28;20457;-77
2022/05/09 06:02:47;;;;;;;9.13;8.23;;;17.80;73.40;;;-142.21;100.00;112049.66;5063762;28;20448;-78
2022/05/09 06:05:19;;;;;;;9.17;8.27;;;17.90;73.00;;;-142.21;100.00;112049.66;5062538;28;20449;-79
2022/05/09 06:07:47;;;;;;;9.47;7.57;;;18.00;72.10;;;-142.21;100.00;112049.66;5062603;28;20555;-79
2022/05/09 06:10:16;;;;;;;8.10;7.30;;;18.10;72.40;;;-142.21;100.00;112049.66;5060081;28;20812;-80
2022/05/09 06:12:50;;;;;;;7.90;7.10;;;18.20;72.70;;;-142.21;100.00;112049.66;5058413;28;20865;-79
2022/05/09 06:15:31;;;;;;;8.53;7.73;;;18.30;72.50;;;-142.21;100.00;112049.66;5052975;28;20479;-79
2022/05/09 06:18:01;;;;;;;8.33;6.70;;;18.30;72.50;;;-142.21;100.00;112049.66;5052607;28;20440;-79
2022/05/09 06:20:33;;;;;;;8.63;7.73;;;18.30;70.90;;;-142.21;100.00;112049.66;5052883;28;21051;-80
2022/05/09 06:23:02;;;;;;;8.53;7.60;;;18.40;72.10;;;-142.21;100.00;112049.66;5053114;28;20459;-79
2022/05/09 06:25:31;;;;;;;7.87;7.03;;;18.60;72.00;;;-142.21;100.00;112049.66;5053328;28;20448;-79
2022/05/09 06:27:59;;;;;;;7.83;7.03;;;18.60;70.80;;;-142.21;100.00;112049.66;5052386;28;20488;-79
2022/05/09 06:30:27;;;;;;;9.10;6.93;;;18.60;71.20;;;-142.21;100.00;112049.66;5052900;28;20498;-80
2022/05/09 06:32:55;;;;;;;7.23;6.53;;;18.80;71.50;;;-142.21;100.00;112049.66;5051976;28;20479;-76
2022/05/09 06:35:25;;;;;;;7.50;6.53;;;18.90;71.30;;;-142.21;100.00;112049.66;5052902;28;20452;-78
2022/05/09 06:38:00;;;;;;;7.80;7.00;;;18.80;69.80;;;-142.21;100.00;112049.66;5051953;28;20476;-76
2022/05/09 06:40:29;;;;;;;8.03;7.10;;;19.00;70.80;;;-142.21;100.00;112049.66;5052258;28;20462;-79
2022/05/09 06:42:57;;;;;;;7.43;6.70;;;19.10;70.40;;;-142.21;100.00;112049.66;5051928;28;20448;-78
2022/05/09 06:45:25;;;;;;;7.03;5.90;;;19.80;71.10;;;-142.21;100.00;112049.66;5049996;28;20479;-80
2022/05/09 06:47:55;;;;;;;6.10;4.80;;;23.40;60.80;;;-142.21;100.00;112049.66;5051913;28;20440;-79
2022/05/09 06:50:27;;;;;;;6.67;5.03;;;26.90;52.80;;;-142.21;100.00;112049.66;5052865;28;20193;-79
2022/05/09 06:52:55;;;;;;;6.30;5.17;;;29.20;47.50;;;-142.21;100.00;112049.66;5051721;28;20241;-80
2022/05/09 06:55:23;;;;;;;5.20;4.53;;;30.90;44.30;;;-142.21;100.00;112049.66;5052529;28;20213;-81
2022/05/09 06:57:50;;;;;;;5.37;4.87;;;32.10;43.30;;;-142.21;100.00;112049.66;5052244;28;20263;-77
2022/05/09 07:00:21;;;;;;;5.67;5.17;;;32.70;41.00;;;-142.21;97.79;112049.66;5052174;28;20276;-81
2022/05/09 07:02:49;;;;;;;6.20;5.63;;;32.60;40.10;;;-142.21;97.36;112049.66;5052319;28;20267;-77
2022/05/09 07:05:23;;;;;;;5.73;5.23;;;31.40;42.10;;;-142.21;97.63;112049.66;5047853;28;20225;-80
2022/05/09 07:07:51;;;;;;;5.53;5.00;;;31.60;41.30;;;-142.21;93.16;112049.66;5031611;28;20195;-80
2022/05/09 07:10:21;;;;;;;5.30;4.80;;;33.00;39.60;;;-142.21;94.94;112049.66;5032239;28;20301;-80
2022/05/09 07:12:51;;;;;;;6.10;5.53;;;32.30;39.60;;;-142.21;94.97;112049.66;5030616;28;20553;-82
2022/05/09 07:15:22;;;;;;;6.93;4.67;;;29.70;42.90;;;-142.21;99.33;112049.66;5032315;28;20251;-81
2022/05/09 07:17:50;;;;;;;5.60;5.00;;;27.70;47.00;;;-142.21;99.23;112049.66;5045425;28;20287;-80
2022/05/09 07:20:18;;;;;;;6.00;5.40;;;26.40;49.10;;;-142.21;98.52;112049.66;5032355;28;20217;-79
2022/05/09 07:22:46;;;;;;;5.73;5.23;;;25.50;51.00;;;-142.21;96.03;112049.66;5031661;28;20206;-81
2022/05/09 07:25:14;;;;;;;5.80;5.30;;;25.30;52.00;;;-142.21;97.86;112049.66;5032113;28;20732;-81
2022/05/09 07:27:43;;;;;;;5.73;5.13;;;26.90;50.00;;;-142.21;96.29;112049.66;5031684;28;20298;-81
2022/05/09 07:30:12;;;;;;;5.40;4.90;;;26.60;49.20;;;-142.21;100.00;112049.66;5031838;28;20245;-81
2022/05/09 07:32:40;;;;;;;6.97;5.27;;;25.70;51.80;;;-142.21;100.00;112049.66;5031686;28;20241;-81
2022/05/09 07:35:11;;;;;;;5.80;5.20;;;25.00;52.90;;;-142.21;98.87;112049.66;5031514;28;20272;-80
2022/05/09 07:37:40;;;;;;;9.53;5.93;;;24.60;53.20;;;-142.21;100.00;112049.66;5031450;28;20193;-80
2022/05/09 07:40:11;;;;;;;5.73;5.17;;;24.20;54.60;;;-142.21;100.00;112049.66;5032054;28;20214;-80
2022/05/09 07:42:40;;;;;;;7.43;5.53;;;23.80;55.40;;;-142.21;98.62;112049.66;5032069;28;20199;-80
2022/05/09 07:45:13;;;;;;;7.33;6.63;;;23.30;55.10;;;-142.21;99.90;112049.66;5031879;28;20234;-81
2022/05/09 07:47:41;;;;;;;6.43;5.10;;;23.50;56.20;;;-142.21;98.72;112049.66;5031742;28;20195;-81
2022/05/09 07:50:12;;;;;;;6.40;5.57;;;24.40;54.30;;;-142.21;100.00;112049.66;5032500;28;20241;-80
2022/05/09 07:52:40;;;;;;;6.27;5.67;;;23.90;55.40;;;-142.21;97.51;112049.66;5035756;28;20198;-81
2022/05/09 07:55:09;;;;;;;6.33;5.73;;;23.70;55.80;;;-142.21;98.19;112049.66;5035937;28;20253;-80
2022/05/09 07:57:37;;;;;;;6.30;5.40;;;23.40;57.10;;;-142.21;93.07;112049.66;5035762;28;20252;-80
2022/05/09 08:00:07;;;;;;;5.93;5.40;;;23.30;56.20;;;-142.21;93.12;112049.66;5050855;28;20210;-80
2022/05/09 08:02:36;;;;;;;6.40;5.80;;;23.20;56.20;;;-142.21;87.73;112049.66;5035484;28;20733;-81
2022/05/09 08:05:05;;;;;;;7.77;5.70;;;23.00;56.50;;;-142.21;89.94;112049.66;5035089;28;20226;-80
2022/05/09 08:07:32;;;;;;;9.30;5.23;;;23.10;57.50;;;-142.21;86.77;112049.66;5035695;28;20277;-79
2022/05/09 08:10:00;;;;;;;8.83;6.57;;;23.10;57.00;;;-142.21;88.56;112049.66;5035089;28;20268;-80
2022/05/09 08:12:27;;;;;;;5.90;5.40;;;23.10;57.10;;;-142.21;88.96;112049.66;5035454;28;20617;-80
2022/05/09 08:14:54;;;;;;;5.97;5.43;;;23.10;56.70;;;-142.21;88.00;112049.66;5035128;28;20226;-80
2022/05/09 08:17:21;;;;;;;6.90;5.93;;;23.10;56.40;;;-142.21;90.74;112049.66;5035516;28;20260;-79
2022/05/09 08:19:55;;;;;;;6.70;5.97;;;23.00;56.90;;;-142.21;90.89;112049.66;5034228;28;20210;-80
2022/05/09 08:22:25;;;;;;;6.53;5.90;;;22.80;57.10;;;-142.21;94.20;112049.66;5035602;28;20213;-80
2022/05/09 08:24:52;;;;;;;8.40;5.73;;;22.90;58.00;;;-142.21;93.35;112049.66;5034471;28;20675;-79
2022/05/09 08:27:19;;;;;;;7.40;5.17;;;22.90;58.30;;;-142.21;92.76;112049.66;5034863;28;20248;-80
2022/05/09 08:29:48;;;;;;;7.03;5.43;;;22.90;58.00;;;-142.21;95.77;112049.66;5034383;28;20207;-79
2022/05/09 08:32:16;;;;;;;7.43;5.93;;;22.90;59.50;;;-142.21;93.71;112049.66;5035118;28;20575;-80
2022/05/09 08:34:43;;;;;;;5.30;4.90;;;22.90;58.90;;;-142.21;91.94;112049.66;5034324;28;20234;-80
2022/05/09 08:37:11;;;;;;;6.77;6.07;;;22.90;58.60;;;-142.21;88.13;112049.66;5035092;28;20292;-80
2022/05/09 08:39:38;;;;;;;6.27;5.67;;;23.10;58.30;;;-142.21;80.88;112049.66;5035073;28;20207;-80
2022/05/09 08:42:09;;;;;;;7.80;5.67;;;23.20;58.10;;;-142.21;80.20;112049.66;5034350;28;20210;-81
2022/05/09 08:45:02;;;;;;;8.03;5.90;;;23.30;58.00;;;-142.21;77.67;112049.66;5034254;28;20388;-80
2022/05/09 08:48:23;;;;;;;6.20;5.60;;;23.40;57.00;;;-142.21;73.16;112049.66;5034765;28;20230;-80
2022/05/09 08:51:05;;;;;;;5.50;4.93;;;23.50;57.00;;;-142.21;73.07;112049.66;4992492;28;20263;-79
2022/05/09 08:53:39;;;;;;;5.83;5.10;;;23.60;56.60;;;-142.21;66.21;112049.66;5028623;28;20214;-80
2022/05/09 08:56:14;;;;;;;6.37;5.27;;;24.30;56.00;;;-142.21;54.84;112049.66;5034129;28;20191;-81
2022/05/09 08:58:47;;;;;;;5.27;4.77;;;25.50;54.60;;;-142.21;49.75;112049.66;5034687;28;20285;-80
2022/05/09 09:01:19;;;;;;;5.07;4.50;;;26.10;53.30;;;-142.21;53.64;112049.66;5034301;28;20193;-80
2022/05/09 09:03:57;;;;;;;5.00;4.53;;;26.90;52.40;;;-142.21;56.64;112049.66;5032962;28;20222;-79
2022/05/09 09:06:53;;;;;;;4.87;4.40;;;27.80;50.50;;;-142.21;60.35;112049.66;5034564;28;20256;-81
2022/05/09 09:09:41;;;;;;;5.17;4.77;;;28.00;48.80;;;-142.21;62.74;112049.66;5034476;28;20725;-81
2022/05/09 09:12:21;;;;;;;5.10;4.70;;;28.40;48.70;;;-142.21;61.44;112049.66;5034608;28;20193;-80
2022/05/09 09:15:02;;;;;;;5.50;5.00;;;27.40;48.60;;;-142.21;67.86;112049.66;5033931;28;20230;-79
2022/05/09 09:17:56;;;;;;;5.07;4.57;;;27.00;50.50;;;-142.21;68.63;112049.66;5034077;28;20222;-80
2022/05/09 09:20:30;;;;;;;6.77;4.97;;;26.80;50.90;;;-142.21;68.70;112049.66;5034130;28;20183;-80
2022/05/09 09:23:17;;;;;;;5.23;4.73;;;26.60;50.80;;;-142.21;73.98;112049.66;5033586;28;20237;-80
2022/05/09 09:26:03;;;;;;;6.93;5.00;;;26.60;52.00;;;-142.21;64.60;112049.66;5033578;28;20222;-80
2022/05/09 09:28:46;;;;;;;5.70;5.07;;;26.40;49.70;;;-142.21;67.10;112049.66;5033818;28;20183;-80
2022/05/09 09:31:23;;;;;;;5.67;5.17;;;26.20;51.20;;;-142.21;64.63;112049.66;5033450;28;20233;-78
2022/05/09 09:34:00;;;;;;;5.97;4.90;;;26.10;51.40;;;-142.21;67.08;112049.66;5033200;28;20682;-80
2022/05/09 09:36:39;;;;;;;5.53;4.57;;;26.10;51.20;;;-142.21;71.46;112049.66;5034079;28;20222;-79
2022/05/09 09:39:16;;;;;;;6.67;5.13;;;26.20;52.50;;;-142.21;63.36;112049.66;5033026;28;20652;-81
2022/05/09 09:41:45;;;;;;;5.27;4.70;;;26.10;51.40;;;-142.21;61.73;112049.66;5033687;28;20193;-79
2022/05/09 09:44:15;;;;;;;5.40;4.90;;;26.10;51.10;;;-142.21;63.18;112049.66;5033467;28;20299;-79
2022/05/09 09:47:10;;;;;;;4.90;4.40;;;26.00;51.40;;;-142.21;68.85;112049.66;5033482;28;20191;-80
2022/05/09 09:49:39;;;;;;;5.23;4.00;;;26.10;52.40;;;-142.21;72.04;112049.66;5033442;28;20701;-80
2022/05/09 09:52:19;;;;;;;5.17;4.67;;;26.30;53.10;;;-142.21;68.60;112049.66;5047900;28;20214;-79
2022/05/09 09:54:55;;;;;;;4.67;4.17;;;26.30;52.50;;;-142.21;65.54;112049.66;5032711;28;20214;-79
2022/05/09 09:57:29;;;;;;;6.13;4.10;;;26.40;51.90;;;-142.21;64.67;112049.66;5033630;28;20280;-80
2022/05/09 09:59:57;;;;;;;4.47;3.93;;;26.50;51.60;;;-142.21;67.68;112049.66;5032803;28;20546;-80
2022/05/09 10:02:30;;;;;;;6.70;4.80;;;26.50;52.50;;;-142.21;59.52;112049.66;5033597;28;20247;-80
2022/05/09 10:05:10;;;;;;;5.27;4.37;;;26.60;50.90;;;-142.21;62.18;112049.66;5032892;28;20310;-80
2022/05/09 10:07:39;;;;;;;6.40;4.80;;;26.70;50.80;;;-142.21;59.28;112049.66;5033405;28;20276;-79
2022/05/09 10:10:14;;;;;;;4.30;4.00;;;26.70;50.50;;;-142.21;64.00;112049.66;5033164;28;20367;-80
2022/05/09 10:12:48;;;;;;;4.87;4.43;;;26.70;51.60;;;-142.21;61.62;112049.66;5032980;28;20649;-80
2022/05/09 10:15:30;;;;;;;4.80;4.40;;;26.90;50.90;;;-142.21;59.51;112049.66;5033275;28;20218;-80
2022/05/09 10:17:59;;;;;;;5.17;4.50;;;27.00;50.10;;;-142.21;58.23;112049.66;5032940;28;20599;-82